createdAt,value
2023-11-04T00:01:01.973Z,1.30
2023-11-04T00:03:39.312Z,1.17
2023-11-04T00:06:06.573Z,1.20
2023-11-04T00:08:33.170Z,1.20
2023-11-04T00:10:59.699Z,1.23
2023-11-04T00:13:26.211Z,1.30
2023-11-04T00:15:53.054Z,1.20
2023-11-04T00:18:19.835Z,1.37
2023-11-04T00:20:51.619Z,1.40
2023-11-04T00:23:19.182Z,1.37
2023-11-04T00:25:46.168Z,1.30
2023-11-04T00:28:12.853Z,1.27
2023-11-04T00:30:39.429Z,1.20
2023-11-04T00:33:06.200Z,1.33
2023-11-04T00:35:32.815Z,1.30
2023-11-04T00:37:59.344Z,1.40
2023-11-04T00:40:25.928Z,1.30
2023-11-04T00:42:54.305Z,1.20
2023-11-04T00:45:20.969Z,1.37
2023-11-04T00:47:47.665Z,1.20
2023-11-04T00:50:20.339Z,1.23
2023-11-04T00:52:48.546Z,1.20
2023-11-04T00:55:15.225Z,1.23
2023-11-04T00:57:41.766Z,1.23
2023-11-04T01:00:08.950Z,1.20
2023-11-04T01:02:35.556Z,1.50
2023-11-04T01:05:02.226Z,1.43
2023-11-04T01:07:29.545Z,1.23
2023-11-04T01:09:56.202Z,1.20
2023-11-04T01:12:22.856Z,1.37
2023-11-04T01:14:49.409Z,1.30
2023-11-04T01:17:15.948Z,1.30
2023-11-04T01:19:42.857Z,1.20
2023-11-04T01:22:09.448Z,1.50
2023-11-04T01:24:36.294Z,1.30
2023-11-04T01:27:02.932Z,1.27
2023-11-04T01:29:29.490Z,1.20
2023-11-04T01:31:55.983Z,1.37
2023-11-04T01:34:22.632Z,1.50
2023-11-04T01:36:49.356Z,1.20
2023-11-04T01:39:15.969Z,1.30
2023-11-04T01:41:42.533Z,1.30
2023-11-04T01:44:09.095Z,1.20
2023-11-04T01:46:35.661Z,1.30
2023-11-04T01:49:02.232Z,1.10
2023-11-04T01:51:29.071Z,1.20
2023-11-04T01:53:55.663Z,1.50
2023-11-04T01:56:26.060Z,1.27
2023-11-04T01:58:53.220Z,1.20
2023-11-04T02:01:19.755Z,1.27
2023-11-04T02:03:46.846Z,1.30
2023-11-04T02:06:13.442Z,1.40
2023-11-04T02:08:40.030Z,1.13
2023-11-04T02:11:06.615Z,1.30
2023-11-04T02:13:33.120Z,1.10
2023-11-04T02:15:59.708Z,1.10
2023-11-04T02:18:26.572Z,1.30
2023-11-04T02:20:53.291Z,1.20
2023-11-04T02:23:19.876Z,1.30
2023-11-04T02:25:46.428Z,1.20
2023-11-04T02:28:13.841Z,1.13
2023-11-04T02:30:40.471Z,1.27
2023-11-04T02:33:07.650Z,1.17
2023-11-04T02:35:34.330Z,1.20
2023-11-04T02:38:00.873Z,1.40
2023-11-04T02:40:27.430Z,1.10
2023-11-04T02:42:54.036Z,1.10
2023-11-04T02:45:20.716Z,1.17
2023-11-04T02:47:47.303Z,1.10
2023-11-04T02:50:14.553Z,1.30
2023-11-04T02:52:41.401Z,1.20
2023-11-04T02:55:08.340Z,1.20
2023-11-04T02:57:35.382Z,1.10
2023-11-04T03:00:02.071Z,1.30
2023-11-04T03:02:28.642Z,1.20
2023-11-04T03:04:55.320Z,1.37
2023-11-04T03:07:22.049Z,1.17
2023-11-04T03:09:48.957Z,1.30
2023-11-04T03:12:16.239Z,1.20
2023-11-04T03:14:47.140Z,1.20
2023-11-04T03:17:14.011Z,1.30
2023-11-04T03:19:40.541Z,1.37
2023-11-04T03:22:07.076Z,1.10
2023-11-04T03:24:34.616Z,1.13
2023-11-04T03:27:01.302Z,1.40
2023-11-04T03:29:27.885Z,1.23
2023-11-04T03:31:54.472Z,1.10
2023-11-04T03:34:21.060Z,1.30
2023-11-04T03:36:47.747Z,1.17
2023-11-04T03:39:14.860Z,1.40
2023-11-04T03:41:41.405Z,1.40
2023-11-04T03:44:07.959Z,1.20
2023-11-04T03:46:34.469Z,1.27
2023-11-04T03:49:01.516Z,1.20
2023-11-04T03:51:28.188Z,1.20
2023-11-04T03:53:56.416Z,1.20
2023-11-04T03:56:23.619Z,1.23
2023-11-04T03:58:50.158Z,1.23
2023-11-04T04:01:16.666Z,1.27
2023-11-04T04:03:43.247Z,1.20
2023-11-04T04:06:10.211Z,1.40
2023-11-04T04:08:36.792Z,1.20
2023-11-04T04:11:03.654Z,1.20
2023-11-04T04:13:31.000Z,1.23
2023-11-04T04:15:57.635Z,1.30
2023-11-04T04:18:24.308Z,1.20
2023-11-04T04:20:50.895Z,1.10
2023-11-04T04:23:17.390Z,1.20
2023-11-04T04:25:43.933Z,1.30
2023-11-04T04:28:10.931Z,1.30
2023-11-04T04:30:37.590Z,1.20
2023-11-04T04:33:04.278Z,1.10
2023-11-04T04:35:31.172Z,1.20
2023-11-04T04:37:57.783Z,1.40
2023-11-04T04:40:24.396Z,1.27
2023-11-04T04:42:55.298Z,1.27
2023-11-04T04:45:21.969Z,1.33
2023-11-04T04:47:48.595Z,1.17
2023-11-04T04:50:15.415Z,1.30
2023-11-04T04:52:42.380Z,1.27
2023-11-04T04:55:09.062Z,1.20
2023-11-04T04:57:36.782Z,1.07
2023-11-04T05:00:07.133Z,1.10
2023-11-04T05:02:34.837Z,1.17
2023-11-04T05:05:01.514Z,1.20
2023-11-04T05:07:28.174Z,1.10
2023-11-04T05:09:55.113Z,1.40
2023-11-04T05:12:21.719Z,1.20
2023-11-04T05:14:48.560Z,1.20
2023-11-04T05:17:15.146Z,1.10
2023-11-04T05:19:41.643Z,1.13
2023-11-04T05:22:08.844Z,1.20
2023-11-04T05:24:38.289Z,1.10
2023-11-04T05:27:05.145Z,1.00
2023-11-04T05:29:32.179Z,1.13
2023-11-04T05:31:58.748Z,1.20
2023-11-04T05:34:25.264Z,1.23
2023-11-04T05:36:52.481Z,1.03
2023-11-04T05:39:18.999Z,1.20
2023-11-04T05:41:45.589Z,1.10
2023-11-04T05:44:12.193Z,1.10
2023-11-04T05:46:38.764Z,1.33
2023-11-04T05:49:05.307Z,1.10
2023-11-04T05:51:32.267Z,1.20
2023-11-04T05:53:58.834Z,1.10
2023-11-04T05:56:25.384Z,1.00
2023-11-04T05:58:52.372Z,1.20
2023-11-04T06:01:26.074Z,1.20
2023-11-04T06:03:52.799Z,1.00
2023-11-04T06:06:22.900Z,1.10
2023-11-04T06:08:49.509Z,1.00
2023-11-04T06:11:16.041Z,1.30
2023-11-04T06:13:45.639Z,1.10
2023-11-04T06:16:12.159Z,1.00
2023-11-04T06:18:38.784Z,1.03
2023-11-04T06:21:05.949Z,1.07
2023-11-04T06:23:32.874Z,1.27
2023-11-04T06:25:59.428Z,1.10
2023-11-04T06:28:25.934Z,1.10
2023-11-04T06:30:52.513Z,1.10
2023-11-04T06:33:19.213Z,1.10
2023-11-04T06:35:45.827Z,1.20
2023-11-04T06:38:13.786Z,1.00
2023-11-04T06:40:41.419Z,1.00
2023-11-04T06:43:08.815Z,0.93
2023-11-04T06:45:36.183Z,1.10
2023-11-04T06:48:02.830Z,1.00
2023-11-04T06:50:29.995Z,1.10
2023-11-04T06:52:57.037Z,0.90
2023-11-04T06:55:23.594Z,1.03
2023-11-04T06:57:51.609Z,1.17
2023-11-04T07:00:19.051Z,1.10
2023-11-04T07:02:45.708Z,1.00
2023-11-04T07:05:12.428Z,1.00
2023-11-04T07:07:39.017Z,1.00
2023-11-04T07:10:07.770Z,1.10
2023-11-04T07:12:36.040Z,1.10
2023-11-04T07:15:05.992Z,0.90
2023-11-04T07:17:32.654Z,0.90
2023-11-04T07:19:59.211Z,1.00
2023-11-04T07:22:25.734Z,1.10
2023-11-04T07:24:52.347Z,1.10
2023-11-04T07:27:18.937Z,1.00
2023-11-04T07:29:46.095Z,1.20
2023-11-04T07:32:12.676Z,0.93
2023-11-04T07:34:39.270Z,1.23
2023-11-04T07:37:05.867Z,1.00
2023-11-04T07:39:32.843Z,1.00
2023-11-04T07:41:59.435Z,1.00
2023-11-04T07:44:26.027Z,1.00
2023-11-04T07:46:52.635Z,1.10
2023-11-04T07:49:19.243Z,1.10
2023-11-04T07:51:45.812Z,1.20
2023-11-04T07:54:12.327Z,1.33
2023-11-04T07:56:38.907Z,1.10
2023-11-04T07:59:05.727Z,1.07
2023-11-04T08:01:33.010Z,1.10
2023-11-04T08:03:59.632Z,1.00
2023-11-04T08:06:26.178Z,1.00
2023-11-04T08:08:52.738Z,0.90
2023-11-04T08:11:19.407Z,1.10
2023-11-04T08:13:46.304Z,1.00
2023-11-04T08:16:12.829Z,1.00
2023-11-04T08:18:39.616Z,1.20
2023-11-04T08:21:06.893Z,1.00
2023-11-04T08:23:33.671Z,1.00
2023-11-04T08:26:01.250Z,0.90
2023-11-04T08:28:29.787Z,1.00
2023-11-04T08:30:56.372Z,1.00
2023-11-04T08:33:22.935Z,1.10
2023-11-04T08:35:49.547Z,1.20
2023-11-04T08:38:17.836Z,1.20
2023-11-04T08:40:44.715Z,1.13
2023-11-04T08:43:12.249Z,1.17
2023-11-04T08:45:38.837Z,0.90
2023-11-04T08:48:05.529Z,1.10
2023-11-04T08:50:33.003Z,1.00
2023-11-04T08:52:59.636Z,1.00
2023-11-04T08:55:26.339Z,1.10
2023-11-04T08:57:52.898Z,0.90
2023-11-04T09:00:20.435Z,1.10
2023-11-04T09:02:47.067Z,1.20
2023-11-04T09:05:17.355Z,1.10
2023-11-04T09:07:46.588Z,1.17
2023-11-04T09:10:13.284Z,1.37
2023-11-04T09:12:39.960Z,1.20
2023-11-04T09:15:07.183Z,1.20
2023-11-04T09:17:33.836Z,1.40
2023-11-04T09:20:00.493Z,1.10
2023-11-04T09:22:27.226Z,1.10
2023-11-04T09:24:54.032Z,1.13
2023-11-04T09:27:20.696Z,1.17
2023-11-04T09:29:47.325Z,1.10
2023-11-04T09:32:14.441Z,1.03
2023-11-04T09:34:41.210Z,1.07
2023-11-04T09:37:07.915Z,1.13
2023-11-04T09:39:34.495Z,1.30
2023-11-04T09:42:01.077Z,1.10
2023-11-04T09:44:27.608Z,1.20
2023-11-04T09:46:54.202Z,1.10
2023-11-04T09:49:21.122Z,1.10
2023-11-04T09:51:47.755Z,1.10
2023-11-04T09:54:14.314Z,1.20
2023-11-04T09:56:40.893Z,1.13
2023-11-04T09:59:08.692Z,1.20
2023-11-04T10:01:36.091Z,1.27
2023-11-04T10:04:02.783Z,1.30
2023-11-04T10:06:30.552Z,1.10
2023-11-04T10:08:57.197Z,1.00
2023-11-04T10:11:24.068Z,1.10
2023-11-04T10:13:50.951Z,1.10
2023-11-04T10:16:19.522Z,1.10
2023-11-04T10:18:46.598Z,1.50
2023-11-04T10:21:13.159Z,1.20
2023-11-04T10:23:39.723Z,1.00
2023-11-04T10:26:06.358Z,1.20
2023-11-04T10:28:33.339Z,1.00
2023-11-04T10:31:05.817Z,1.00
2023-11-04T10:33:36.734Z,1.20
2023-11-04T10:36:04.691Z,1.40
2023-11-04T10:38:33.598Z,1.10
2023-11-04T10:41:00.366Z,1.30
2023-11-04T10:43:26.889Z,1.10
2023-11-04T10:45:56.341Z,1.20
2023-11-04T10:48:41.677Z,1.10
2023-11-04T10:51:33.441Z,1.10
2023-11-04T10:54:17.750Z,1.10
2023-11-04T10:56:45.494Z,1.00
2023-11-04T10:59:16.078Z,1.00
2023-11-04T11:01:43.132Z,1.20
2023-11-04T11:04:10.034Z,1.17
2023-11-04T11:06:36.680Z,1.10
2023-11-04T11:09:05.829Z,1.03
2023-11-04T11:11:35.482Z,1.00
2023-11-04T11:14:02.832Z,1.10
2023-11-04T11:16:31.368Z,0.90
2023-11-04T11:19:09.274Z,1.00
2023-11-04T11:21:50.404Z,1.03
2023-11-04T11:24:18.575Z,1.10
2023-11-04T11:26:52.110Z,1.00
2023-11-04T11:29:27.606Z,1.00
2023-11-04T11:32:07.349Z,0.93
2023-11-04T11:34:33.946Z,1.10
2023-11-04T11:37:01.730Z,1.03
2023-11-04T11:39:30.756Z,1.20
2023-11-04T11:41:57.791Z,1.00
2023-11-04T11:44:24.345Z,1.20
2023-11-04T11:46:50.941Z,1.00
2023-11-04T11:49:17.640Z,1.00
2023-11-04T11:51:44.262Z,1.10
2023-11-04T11:54:11.303Z,1.00
2023-11-04T11:56:40.676Z,1.13
2023-11-04T11:59:08.064Z,1.00
2023-11-04T12:01:34.927Z,1.20
2023-11-04T12:04:02.816Z,1.20
2023-11-04T12:06:30.271Z,1.17
2023-11-04T12:08:59.661Z,1.10
2023-11-04T12:11:27.456Z,0.93
2023-11-04T12:13:54.257Z,1.00
2023-11-04T12:16:23.183Z,0.97
2023-11-04T12:18:49.849Z,0.90
2023-11-04T12:21:16.643Z,1.13
2023-11-04T12:23:43.210Z,1.00
2023-11-04T12:26:09.805Z,0.90
2023-11-04T12:28:38.122Z,1.20
2023-11-04T12:31:05.484Z,1.10
2023-11-04T12:33:41.357Z,1.10
2023-11-04T12:36:10.066Z,0.90
2023-11-04T12:38:43.460Z,0.90
2023-11-04T12:41:12.856Z,1.13
2023-11-04T12:43:39.772Z,1.30
2023-11-04T12:46:09.508Z,1.00
2023-11-04T12:48:37.495Z,0.90
2023-11-04T12:51:04.425Z,0.90
2023-11-04T12:53:31.937Z,1.00
2023-11-04T12:55:58.994Z,1.00
2023-11-04T12:58:25.717Z,1.20
2023-11-04T13:00:52.446Z,1.00
2023-11-04T13:05:46.422Z,0.80
2023-11-04T13:08:13.298Z,1.10
2023-11-04T13:10:40.238Z,0.90
2023-11-04T13:13:06.987Z,1.00
2023-11-04T13:15:33.543Z,1.00
2023-11-04T13:18:00.600Z,1.10
2023-11-04T13:20:27.407Z,1.00
2023-11-04T13:22:53.967Z,1.00
2023-11-04T13:25:20.575Z,0.90
2023-11-04T13:27:48.166Z,0.90
2023-11-04T13:30:17.249Z,1.00
2023-11-04T13:32:43.845Z,1.00
2023-11-04T13:35:10.658Z,1.00
2023-11-04T13:37:37.579Z,1.13
2023-11-04T13:40:05.400Z,0.90
2023-11-04T13:42:32.057Z,1.07
2023-11-04T13:45:00.914Z,1.07
2023-11-04T13:47:27.522Z,1.10
2023-11-04T13:49:54.170Z,1.00
2023-11-04T13:52:20.765Z,1.00
2023-11-04T13:54:47.359Z,1.10
2023-11-04T13:57:14.176Z,1.10
2023-11-04T13:59:40.891Z,1.00
2023-11-04T14:02:10.248Z,1.30
2023-11-04T14:04:36.930Z,1.17
2023-11-04T14:07:03.574Z,1.20
2023-11-04T14:09:31.939Z,1.30
2023-11-04T14:11:58.803Z,1.40
2023-11-04T14:14:25.381Z,1.70
2023-11-04T14:16:51.933Z,1.83
2023-11-04T14:19:18.578Z,2.20
2023-11-04T14:21:45.147Z,1.90
2023-11-04T14:24:13.454Z,1.87
2023-11-04T14:26:40.992Z,2.00
2023-11-04T14:29:07.567Z,1.90
2023-11-04T14:31:34.092Z,2.27
2023-11-04T14:34:00.667Z,2.00
2023-11-04T14:36:27.219Z,2.10
2023-11-04T14:38:53.793Z,2.37
2023-11-04T14:41:20.328Z,2.40
2023-11-04T14:43:46.902Z,2.60
2023-11-04T14:46:15.701Z,2.20
2023-11-04T14:48:42.399Z,2.80
2023-11-04T14:51:09.053Z,2.33
2023-11-04T14:53:35.608Z,2.17
2023-11-04T14:56:02.435Z,2.27
2023-11-04T14:58:28.993Z,2.63
2023-11-04T15:00:57.762Z,2.50
2023-11-04T15:03:24.936Z,2.83
2023-11-04T15:05:51.748Z,2.63
2023-11-04T15:08:19.992Z,2.57
2023-11-04T15:10:46.522Z,2.60
2023-11-04T15:13:13.471Z,2.23
2023-11-04T15:15:40.261Z,2.93
2023-11-04T15:18:07.198Z,2.60
2023-11-04T15:20:33.847Z,2.60
2023-11-04T15:23:00.371Z,2.90
2023-11-04T15:25:26.948Z,2.40
2023-11-04T15:27:53.757Z,2.97
2023-11-04T15:30:20.600Z,2.63
2023-11-04T15:32:47.198Z,2.53
2023-11-04T15:35:13.846Z,2.53
2023-11-04T15:37:40.435Z,2.50
2023-11-04T15:40:08.924Z,2.70
2023-11-04T15:42:35.518Z,2.63
2023-11-04T15:45:02.132Z,2.87
2023-11-04T15:47:29.053Z,2.73
2023-11-04T15:49:55.651Z,2.70
2023-11-04T15:52:22.285Z,2.77
2023-11-04T15:54:49.625Z,2.90
2023-11-04T15:57:17.455Z,3.03
2023-11-04T15:59:43.969Z,2.73
2023-11-04T16:02:10.544Z,2.57
2023-11-04T16:04:37.081Z,3.00
2023-11-04T16:07:03.935Z,2.87
2023-11-04T16:09:30.536Z,2.57
2023-11-04T16:11:57.053Z,2.77
2023-11-04T16:14:23.587Z,2.77
2023-11-04T16:16:50.162Z,2.93
2023-11-04T16:19:16.770Z,2.60
2023-11-04T16:21:45.288Z,2.80
2023-11-04T16:24:12.023Z,2.70
2023-11-04T16:26:39.648Z,2.90
2023-11-04T16:29:06.250Z,2.90
2023-11-04T16:31:32.813Z,2.37
2023-11-04T16:34:00.104Z,2.80
2023-11-04T16:36:26.751Z,3.10
2023-11-04T16:38:53.296Z,2.60
2023-11-04T16:41:19.905Z,2.67
2023-11-04T16:43:46.449Z,2.90
2023-11-04T16:46:13.722Z,2.83
2023-11-04T16:48:40.381Z,2.70
2023-11-04T16:51:06.926Z,2.60
2023-11-04T16:53:33.460Z,2.90
2023-11-04T16:56:00.008Z,2.40
2023-11-04T16:58:26.616Z,2.97
2023-11-04T17:00:53.199Z,2.83
2023-11-04T17:03:19.976Z,2.83
2023-11-04T17:05:46.646Z,2.57
2023-11-04T17:08:14.422Z,2.80
2023-11-04T17:10:41.168Z,3.30
2023-11-04T17:13:07.874Z,2.90
2023-11-04T17:15:34.943Z,2.70
2023-11-04T17:18:01.709Z,3.10
2023-11-04T17:20:28.365Z,2.90
2023-11-04T17:22:54.868Z,3.10
2023-11-04T17:25:21.501Z,2.97
2023-11-04T17:27:48.117Z,2.97
2023-11-04T17:30:14.804Z,3.00
2023-11-04T17:32:41.415Z,2.93
2023-11-04T17:35:09.939Z,2.70
2023-11-04T17:37:37.144Z,2.77
2023-11-04T17:40:04.293Z,2.80
2023-11-04T17:42:32.368Z,3.03
2023-11-04T17:44:59.453Z,3.40
2023-11-04T17:47:26.331Z,2.57
2023-11-04T17:49:52.900Z,3.07
2023-11-04T17:52:19.728Z,3.07
2023-11-04T17:54:46.925Z,3.03
2023-11-04T17:57:13.531Z,3.00
2023-11-04T17:59:40.878Z,3.17
2023-11-04T18:02:07.718Z,2.87
2023-11-04T18:04:34.344Z,2.83
2023-11-04T18:07:00.997Z,2.90
2023-11-04T18:09:28.084Z,2.60
2023-11-04T18:11:55.855Z,2.77
2023-11-04T18:14:22.508Z,2.97
2023-11-04T18:16:49.210Z,3.60
2023-11-04T18:19:21.315Z,3.10
2023-11-04T18:21:48.550Z,3.13
2023-11-04T18:24:19.039Z,3.20
2023-11-04T18:26:45.824Z,3.50
2023-11-04T18:29:12.667Z,3.03
2023-11-04T18:31:39.187Z,2.90
2023-11-04T18:34:05.814Z,3.37
2023-11-04T18:36:32.366Z,2.87
2023-11-04T18:38:59.623Z,3.20
2023-11-04T18:41:26.521Z,3.17
2023-11-04T18:43:53.199Z,2.70
2023-11-04T18:46:20.155Z,3.00
2023-11-04T18:48:46.891Z,3.60
2023-11-04T18:51:20.072Z,3.23
2023-11-04T18:53:46.762Z,3.17
2023-11-04T18:56:13.532Z,3.30
2023-11-04T18:58:40.143Z,3.17
2023-11-04T19:01:06.895Z,2.87
2023-11-04T19:03:33.491Z,3.27
2023-11-04T19:06:00.649Z,3.27
2023-11-04T19:08:29.593Z,2.83
2023-11-04T19:10:56.714Z,3.27
2023-11-04T19:13:23.266Z,3.33
2023-11-04T19:15:49.923Z,3.20
2023-11-04T19:18:16.616Z,3.40
2023-11-04T19:20:43.277Z,2.97
2023-11-04T19:23:09.814Z,3.37
2023-11-04T19:25:36.372Z,3.17
2023-11-04T19:28:03.146Z,3.00
2023-11-04T19:30:30.209Z,2.90
2023-11-04T19:32:57.190Z,2.83
2023-11-04T19:35:23.942Z,2.90
2023-11-04T19:37:50.498Z,3.37
2023-11-04T19:40:17.141Z,3.43
2023-11-04T19:42:43.684Z,2.80
2023-11-04T19:45:12.548Z,3.60
2023-11-04T19:47:39.583Z,3.37
2023-11-04T19:50:07.378Z,3.33
2023-11-04T19:52:34.313Z,3.20
2023-11-04T19:55:01.107Z,3.57
2023-11-04T19:57:27.675Z,3.77
2023-11-04T19:59:54.172Z,3.87
2023-11-04T20:02:20.779Z,4.33
2023-11-04T20:04:47.412Z,4.10
2023-11-04T20:07:14.065Z,4.00
2023-11-04T20:09:40.642Z,4.00
2023-11-04T20:12:07.284Z,4.50
2023-11-04T20:14:36.495Z,4.50
2023-11-04T20:17:03.422Z,4.20
2023-11-04T20:19:29.988Z,4.37
2023-11-04T20:21:57.975Z,4.50
2023-11-04T20:24:24.640Z,4.27
2023-11-04T20:26:51.181Z,4.27
2023-11-04T20:29:17.734Z,3.73
2023-11-04T20:31:44.391Z,4.13
2023-11-04T20:34:11.038Z,4.13
2023-11-04T20:36:37.611Z,4.57
2023-11-04T20:39:05.386Z,3.80
2023-11-04T20:41:31.954Z,3.60
2023-11-04T20:43:59.933Z,3.63
2023-11-04T20:46:27.961Z,4.10
2023-11-04T20:48:54.706Z,4.10
2023-11-04T20:51:21.427Z,3.63
2023-11-04T20:53:47.994Z,3.40
2023-11-04T20:56:14.717Z,3.83
2023-11-04T20:58:41.230Z,3.33
2023-11-04T21:01:07.947Z,4.00
2023-11-04T21:03:34.564Z,3.77
2023-11-04T21:06:01.061Z,3.83
2023-11-04T21:08:27.762Z,3.57
2023-11-04T21:10:54.575Z,3.60
2023-11-04T21:13:21.185Z,3.47
2023-11-04T21:15:47.702Z,3.20
2023-11-04T21:18:14.908Z,3.10
2023-11-04T21:20:41.672Z,3.70
2023-11-04T21:23:08.448Z,3.50
2023-11-04T21:25:35.086Z,3.00
2023-11-04T21:28:02.808Z,3.30
2023-11-04T21:30:29.479Z,3.30
2023-11-04T21:32:56.081Z,2.97
2023-11-04T21:35:23.362Z,3.73
2023-11-04T21:37:50.355Z,2.93
2023-11-04T21:40:17.049Z,2.93
2023-11-04T21:42:44.418Z,3.47
2023-11-04T21:45:11.048Z,2.97
2023-11-04T21:47:37.654Z,3.37
2023-11-04T21:50:04.765Z,3.10
2023-11-04T21:52:31.410Z,3.37
2023-11-04T21:54:58.038Z,2.93
2023-11-04T21:57:24.586Z,2.80
2023-11-04T21:59:51.122Z,3.07
2023-11-04T22:02:21.126Z,3.27
2023-11-04T22:04:47.796Z,2.90
2023-11-04T22:07:14.427Z,3.00
2023-11-04T22:09:41.130Z,2.90
2023-11-04T22:12:07.767Z,3.30
2023-11-04T22:14:34.289Z,3.00
2023-11-04T22:17:00.807Z,3.03
2023-11-04T22:19:27.550Z,2.80
2023-11-04T22:21:56.178Z,2.90
2023-11-04T22:24:22.987Z,3.03
2023-11-04T22:26:52.304Z,2.80
2023-11-04T22:29:18.910Z,2.70
2023-11-04T22:31:45.447Z,2.80
2023-11-04T22:34:12.037Z,3.33
2023-11-04T22:36:38.829Z,2.83
2023-11-04T22:39:06.344Z,2.83
2023-11-04T22:41:32.864Z,2.67
2023-11-04T22:43:59.385Z,2.77
2023-11-04T22:46:26.188Z,2.50
2023-11-04T22:48:52.806Z,2.40
2023-11-04T22:51:21.946Z,2.67
2023-11-04T22:53:48.598Z,2.30
2023-11-04T22:56:15.149Z,2.60
2023-11-04T22:58:41.689Z,2.47
2023-11-04T23:01:08.279Z,2.60
2023-11-04T23:03:35.042Z,2.90
2023-11-04T23:06:01.927Z,2.70
2023-11-04T23:08:28.521Z,2.50
2023-11-04T23:10:55.065Z,2.90
2023-11-04T23:13:21.642Z,2.63
2023-11-04T23:15:48.315Z,2.43
2023-11-04T23:18:14.858Z,2.60
2023-11-04T23:20:41.428Z,2.50
2023-11-04T23:23:07.965Z,2.67
2023-11-04T23:25:34.592Z,2.17
2023-11-04T23:28:01.255Z,2.70
2023-11-04T23:30:28.400Z,2.43
2023-11-04T23:32:55.127Z,2.73
2023-11-04T23:35:21.723Z,2.30
2023-11-04T23:37:48.274Z,2.80
2023-11-04T23:40:14.928Z,2.20
2023-11-04T23:42:42.709Z,2.77
2023-11-04T23:45:09.686Z,2.30
2023-11-04T23:47:36.374Z,2.30
2023-11-04T23:50:03.170Z,2.90
2023-11-04T23:52:29.776Z,2.30
2023-11-04T23:54:56.373Z,2.53
2023-11-04T23:57:23.000Z,2.07
2023-11-04T23:59:49.536Z,2.50
